Time;durP1;ratioP1;P1;durP2;ratioP2;P2;SDS_P1;SDS_P2;PMS_P1;PMS_P2;Temp;Humidity;BMP_temperature;BMP_pressure;BME280_temperature;BME280_humidity;BME280_pressure;Samples;Min_cycle;Max_cycle;Signal;HPM_P1;HPM_P2
2022/01/13 00:00:40;;;;;;;26.80;7.03;;;5.80;99.90;;;;;;4133196;28;20059;-82
2022/01/13 00:02:40;;;;;;;32.30;7.47;;;5.90;99.90;;;;;;4133826;28;20127;-82
2022/01/13 00:04:41;;;;;;;28.30;7.22;;;6.50;99.90;;;;;;4145161;28;20110;-82
2022/01/13 00:06:44;;;;;;;35.40;7.57;;;6.30;99.90;;;;;;4149522;28;20169;-82
2022/01/13 00:08:45;;;;;;;34.22;9.20;;;6.60;99.90;;;;;;4162953;28;20184;-83
2022/01/13 00:10:46;;;;;;;33.55;8.65;;;5.90;99.90;;;;;;4145967;28;20311;-83
2022/01/13 00:12:47;;;;;;;24.92;6.78;;;6.70;99.90;;;;;;4150346;28;20051;-83
2022/01/13 00:15:39;;;;;;;28.23;6.72;;;5.80;99.90;;;;;;4116803;28;20051;-83
2022/01/13 00:19:31;;;;;;;21.30;6.55;;;5.80;99.90;;;;;;4122115;28;20058;-83
2022/01/13 00:21:40;;;;;;;29.75;7.63;;;5.70;99.90;;;;;;4131165;28;20075;-83
2022/01/13 00:23:44;;;;;;;31.88;6.60;;;6.20;99.90;;;;;;4131611;28;20133;-83
2022/01/13 00:25:46;;;;;;;23.98;6.38;;;5.70;99.90;;;;;;4131445;28;20042;-83
2022/01/13 00:27:54;;;;;;;24.67;5.90;;;5.70;99.90;;;;;;4122984;28;20042;-82
2022/01/13 00:29:58;;;;;;;31.70;5.97;;;5.90;99.90;;;;;;4131791;28;20522;-83
2022/01/13 00:31:59;;;;;;;24.05;6.00;;;5.70;99.90;;;;;;4130875;28;20570;-83
2022/01/13 00:34:02;;;;;;;35.88;7.47;;;5.60;99.90;;;;;;4141265;28;20057;-83
2022/01/13 00:36:04;;;;;;;23.77;6.32;;;6.10;99.90;;;;;;4131352;28;20097;-83
2022/01/13 00:38:05;;;;;;;29.13;6.25;;;6.20;99.90;;;;;;4131043;28;20061;-83
2022/01/13 00:40:07;;;;;;;30.40;6.65;;;5.40;99.90;;;;;;4131213;28;20120;-83
2022/01/13 00:42:08;;;;;;;27.55;7.05;;;5.50;99.90;;;;;;4131476;28;20239;-83
2022/01/13 00:44:09;;;;;;;25.67;6.80;;;5.60;99.90;;;;;;4131311;28;20043;-83
2022/01/13 00:46:12;;;;;;;31.98;6.90;;;6.30;99.90;;;;;;4130975;28;20447;-83
2022/01/13 00:48:13;;;;;;;28.20;5.50;;;5.50;99.90;;;;;;4131123;28;20458;-83
2022/01/13 00:50:13;;;;;;;31.20;5.95;;;5.50;99.90;;;;;;4149912;28;20089;-83
2022/01/13 00:52:14;;;;;;;32.10;6.72;;;6.30;99.90;;;;;;4115032;28;20047;-83
2022/01/13 00:54:15;;;;;;;25.25;6.32;;;5.90;99.90;;;;;;4114515;28;20082;-83
2022/01/13 00:56:17;;;;;;;45.55;7.30;;;5.50;99.90;;;;;;4130909;28;20054;-83
2022/01/13 00:58:18;;;;;;;27.45;5.85;;;6.00;99.90;;;;;;4131240;28;20476;-84
2022/01/13 01:00:18;;;;;;;34.17;6.70;;;5.40;99.90;;;;;;4148916;28;20046;-83
2022/01/13 01:02:20;;;;;;;36.58;6.10;;;5.40;99.90;;;;;;4130857;28;20136;-83
2022/01/13 01:04:21;;;;;;;40.67;7.57;;;5.40;99.90;;;;;;4147492;28;20048;-83
2022/01/13 01:06:22;;;;;;;35.65;6.22;;;5.30;99.90;;;;;;4115029;28;20078;-83
2022/01/13 01:08:25;;;;;;;62.92;6.38;;;5.50;99.90;;;;;;4129788;28;20437;-83
2022/01/13 01:10:25;;;;;;;37.15;5.47;;;5.30;99.90;;;;;;4131260;28;20053;-83
2022/01/13 01:12:29;;;;;;;50.13;6.45;;;6.40;99.90;;;;;;4147276;28;20071;-83
2022/01/13 01:14:32;;;;;;;25.17;6.07;;;5.30;99.90;;;;;;4148300;28;20100;-83
2022/01/13 01:16:36;;;;;;;30.20;5.32;;;5.30;99.90;;;;;;4130743;28;20485;-83
2022/01/13 01:18:50;;;;;;;30.63;6.10;;;5.30;99.90;;;;;;4130166;28;20047;-83
2022/01/13 01:23:15;;;;;;;42.47;6.57;;;6.00;99.90;;;;;;4148766;28;20136;-83
2022/01/13 01:25:33;;;;;;;35.75;6.05;;;5.30;99.90;;;;;;4131614;28;20162;-83
2022/01/13 01:27:43;;;;;;;42.35;7.30;;;5.30;99.90;;;;;;4130876;28;20162;-83
2022/01/13 01:29:52;;;;;;;43.90;6.60;;;6.00;99.90;;;;;;4131517;28;20147;-83
2022/01/13 01:31:55;;;;;;;36.38;6.07;;;6.70;99.90;;;;;;4131373;28;20057;-83
2022/01/13 01:36:04;;;;;;;56.10;6.07;;;5.30;99.90;;;;;;4148350;28;20402;-83
2022/01/13 01:38:05;;;;;;;25.60;5.30;;;5.30;99.90;;;;;;4131076;28;20550;-82
2022/01/13 01:40:08;;;;;;;31.80;6.95;;;4.50;99.90;;;;;;4134390;28;20077;-83
2022/01/13 01:42:09;;;;;;;26.88;6.25;;;5.30;99.90;;;;;;4133892;28;20420;-83
2022/01/13 01:44:12;;;;;;;33.92;6.57;;;6.20;99.90;;;;;;4151717;28;20065;-83
2022/01/13 01:46:14;;;;;;;28.92;7.28;;;5.20;99.90;;;;;;4134029;28;20117;-83
2022/01/13 01:48:19;;;;;;;47.63;7.32;;;5.80;99.90;;;;;;4133930;28;20050;-83
2022/01/13 01:50:22;;;;;;;17.80;6.40;;;5.80;99.90;;;;;;4151559;28;20060;-83
2022/01/13 01:52:23;;;;;;;23.35;6.05;;;5.30;99.90;;;;;;4134021;28;20058;-83
2022/01/13 01:54:25;;;;;;;35.15;7.35;;;6.30;99.90;;;;;;4118091;28;20050;-82
2022/01/13 01:56:25;;;;;;;34.03;7.40;;;5.30;99.90;;;;;;4151138;28;20413;-83
2022/01/13 01:58:27;;;;;;;30.95;7.22;;;5.30;99.90;;;;;;4133734;28;20062;-82
2022/01/13 02:00:28;;;;;;;31.23;7.32;;;6.30;99.90;;;;;;4152104;28;20416;-83
2022/01/13 02:02:30;;;;;;;23.65;6.75;;;6.10;99.90;;;;;;4167742;28;20045;-84
2022/01/13 02:04:31;;;;;;;39.38;7.80;;;5.70;99.90;;;;;;4150223;28;20053;-83
2022/01/13 02:06:32;;;;;;;37.70;8.05;;;5.30;99.90;;;;;;4148958;28;20046;-83
2022/01/13 02:08:33;;;;;;;26.27;7.45;;;5.30;99.90;;;;;;4151335;28;20404;-83
2022/01/13 02:10:33;;;;;;;38.92;7.68;;;6.20;99.90;;;;;;4150820;28;20049;-83
2022/01/13 02:12:40;;;;;;;27.70;7.78;;;5.30;99.90;;;;;;4117622;28;20051;-83
2022/01/13 02:15:26;;;;;;;44.60;9.00;;;5.30;99.90;;;;;;4133825;28;20419;-83
2022/01/13 02:17:25;;;;;;;32.67;8.23;;;6.00;99.90;;;;;;4134771;28;20050;-83
2022/01/13 02:19:26;;;;;;;41.60;8.68;;;5.70;99.90;;;;;;4125842;28;20046;-83
2022/01/13 02:21:27;;;;;;;37.00;7.55;;;5.80;99.90;;;;;;4150881;28;20046;-83
2022/01/13 02:23:32;;;;;;;34.38;8.02;;;6.00;99.90;;;;;;4133121;28;20042;-83
2022/01/13 02:25:33;;;;;;;35.47;6.95;;;5.30;99.90;;;;;;4134056;28;20058;-83
2022/01/13 02:27:33;;;;;;;41.70;8.18;;;5.20;99.90;;;;;;4150927;28;20042;-83
2022/01/13 02:29:35;;;;;;;42.70;8.25;;;5.30;99.90;;;;;;4133942;28;20050;-83
2022/01/13 02:31:36;;;;;;;37.35;9.30;;;6.30;99.90;;;;;;4133268;28;20045;-83
2022/01/13 02:33:37;;;;;;;37.97;7.95;;;5.30;99.90;;;;;;4116944;28;20174;-83
2022/01/13 02:35:37;;;;;;;34.55;7.13;;;5.30;99.90;;;;;;4150969;28;20042;-83
2022/01/13 02:37:39;;;;;;;38.53;7.30;;;5.30;99.90;;;;;;4143037;28;20056;-83
2022/01/13 02:39:41;;;;;;;26.13;8.30;;;6.10;99.90;;;;;;4149138;28;20053;-82
2022/01/13 02:41:44;;;;;;;36.78;9.88;;;5.30;99.90;;;;;;4167478;28;20052;-83
2022/01/13 02:43:47;;;;;;;34.45;7.43;;;6.10;99.90;;;;;;4144835;28;20549;-83
2022/01/13 02:46:18;;;;;;;44.83;7.65;;;6.00;99.90;;;;;;4117177;28;20055;-83
2022/01/13 02:48:27;;;;;;;39.30;8.00;;;5.80;99.90;;;;;;4116202;28;20062;-83
2022/01/13 02:50:28;;;;;;;40.25;8.38;;;5.30;99.90;;;;;;4134027;28;20510;-83
2022/01/13 02:52:29;;;;;;;38.53;8.48;;;6.60;99.90;;;;;;4116917;28;20076;-83
2022/01/13 02:54:30;;;;;;;45.70;8.20;;;5.30;99.90;;;;;;4134674;28;20050;-83
2022/01/13 02:56:31;;;;;;;31.08;7.43;;;6.50;99.90;;;;;;4133126;28;20059;-84
2022/01/13 02:58:34;;;;;;;35.42;8.95;;;5.80;99.90;;;;;;4133019;28;20431;-83
2022/01/13 03:00:35;;;;;;;23.45;7.70;;;6.00;99.90;;;;;;4150804;28;20046;-84
2022/01/13 03:02:35;;;;;;;36.65;8.25;;;5.50;99.90;;;;;;4133169;28;20050;-84
2022/01/13 03:04:37;;;;;;;43.67;8.68;;;5.40;99.90;;;;;;4132739;28;20046;-84
2022/01/13 03:06:40;;;;;;;37.25;8.27;;;5.40;99.90;;;;;;4132902;28;20404;-84
2022/01/13 03:08:47;;;;;;;37.05;8.48;;;6.00;99.90;;;;;;4149364;28;20049;-83
2022/01/13 03:10:47;;;;;;;29.33;9.38;;;5.60;99.90;;;;;;4133019;28;20107;-83
2022/01/13 03:12:49;;;;;;;40.70;8.90;;;5.50;99.90;;;;;;4132916;28;20093;-83
2022/01/13 03:14:50;;;;;;;30.92;7.45;;;5.40;99.90;;;;;;4132661;28;20388;-83
2022/01/13 03:16:52;;;;;;;34.20;7.78;;;6.30;99.90;;;;;;4132592;28;20142;-83
2022/01/13 03:18:53;;;;;;;37.50;8.38;;;5.50;99.90;;;;;;4132070;28;20057;-83
2022/01/13 03:20:54;;;;;;;29.33;7.45;;;5.50;99.90;;;;;;4133055;28;20049;-83
2022/01/13 03:22:55;;;;;;;37.67;8.32;;;5.50;99.90;;;;;;4132329;28;20061;-83
2022/01/13 03:24:56;;;;;;;36.83;8.23;;;5.40;99.90;;;;;;4128409;28;20043;-83
2022/01/13 03:27:01;;;;;;;31.75;7.50;;;5.50;99.90;;;;;;4134117;28;20053;-83
2022/01/13 03:31:12;;;;;;;25.40;6.63;;;5.50;99.90;;;;;;4140264;28;20517;-83
2022/01/13 03:33:13;;;;;;;30.70;6.60;;;6.10;99.90;;;;;;4149325;28;20066;-83
2022/01/13 03:35:14;;;;;;;32.83;7.43;;;5.70;99.90;;;;;;4132570;28;20061;-83
2022/01/13 03:37:15;;;;;;;33.95;6.95;;;5.50;99.90;;;;;;4149786;28;20050;-83
2022/01/13 03:39:16;;;;;;;34.45;7.05;;;6.50;99.90;;;;;;4133229;28;20053;-82
2022/01/13 03:41:19;;;;;;;30.92;7.03;;;5.60;99.90;;;;;;4149264;28;20042;-83
2022/01/13 03:43:20;;;;;;;31.23;6.45;;;5.50;99.90;;;;;;4132021;28;20062;-83
2022/01/13 03:45:21;;;;;;;47.38;7.65;;;5.50;99.90;;;;;;4132620;28;20581;-83
2022/01/13 03:47:22;;;;;;;40.05;7.95;;;5.50;99.90;;;;;;4130688;28;20046;-83
2022/01/13 03:49:23;;;;;;;45.65;7.95;;;6.50;99.90;;;;;;4148456;28;20034;-83
2022/01/13 03:51:23;;;;;;;42.90;7.57;;;5.50;99.90;;;;;;4131133;28;20073;-83
2022/01/13 03:54:03;;;;;;;36.65;7.53;;;6.10;99.90;;;;;;4114301;28;20134;-83
2022/01/13 03:56:41;;;;;;;36.28;8.00;;;5.50;99.90;;;;;;4147541;28;20529;-83
2022/01/13 03:59:07;;;;;;;39.63;8.57;;;5.50;99.90;;;;;;4130839;28;20046;-83
2022/01/13 04:01:27;;;;;;;33.28;8.45;;;5.60;99.90;;;;;;4128506;28;20404;-82
2022/01/13 04:03:27;;;;;;;32.10;7.05;;;5.50;99.90;;;;;;4130202;28;20046;-83
2022/01/13 04:05:29;;;;;;;40.58;7.22;;;5.40;99.90;;;;;;4149227;28;20044;-83
2022/01/13 04:07:30;;;;;;;33.17;8.20;;;5.40;99.90;;;;;;4128410;28;20061;-83
2022/01/13 04:09:33;;;;;;;34.45;6.95;;;6.60;99.90;;;;;;4116288;28;20054;-83
2022/01/13 04:11:34;;;;;;;34.45;7.68;;;5.40;99.90;;;;;;4115977;28;20149;-83
2022/01/13 04:15:52;;;;;;;45.63;8.23;;;5.40;99.90;;;;;;4149773;28;20073;-83
2022/01/13 04:17:52;;;;;;;37.65;8.70;;;5.60;99.90;;;;;;4115713;28;20047;-83
2022/01/13 04:19:53;;;;;;;30.65;7.07;;;5.40;99.90;;;;;;4130973;28;20053;-83
2022/01/13 04:21:54;;;;;;;34.40;8.95;;;6.00;99.90;;;;;;4131948;28;20498;-83
2022/01/13 04:23:56;;;;;;;34.08;7.60;;;6.10;99.90;;;;;;4131809;28;20457;-83
2022/01/13 04:25:57;;;;;;;32.40;6.90;;;5.30;99.90;;;;;;4148871;28;20049;-83
2022/01/13 04:28:02;;;;;;;40.63;8.15;;;4.60;99.90;;;;;;4149115;28;20096;-82
2022/01/13 04:32:15;;;;;;;34.38;6.85;;;5.30;99.90;;;;;;4149671;28;20496;-83
2022/01/13 04:34:17;;;;;;;36.80;6.68;;;6.00;99.90;;;;;;4131630;28;20054;-83
2022/01/13 04:36:18;;;;;;;48.17;8.10;;;5.30;99.90;;;;;;4131656;28;20426;-83
2022/01/13 04:38:19;;;;;;;38.80;7.50;;;6.10;99.90;;;;;;4131441;28;20054;-83
2022/01/13 04:40:20;;;;;;;32.00;7.07;;;6.30;99.90;;;;;;4131336;28;20465;-83
2022/01/13 04:42:22;;;;;;;38.28;7.60;;;6.60;99.90;;;;;;4131839;28;20050;-84
2022/01/13 04:44:25;;;;;;;34.85;7.93;;;5.30;99.90;;;;;;4131781;28;20060;-84
2022/01/13 04:46:26;;;;;;;40.90;8.02;;;5.30;99.90;;;;;;4131458;28;20581;-84
2022/01/13 04:48:27;;;;;;;33.47;7.63;;;5.70;99.90;;;;;;4141189;28;20431;-83
2022/01/13 04:50:28;;;;;;;40.78;8.10;;;6.10;99.90;;;;;;4115296;28;20126;-83
2022/01/13 04:52:29;;;;;;;34.40;6.95;;;5.40;99.90;;;;;;4132786;28;20097;-83
2022/01/13 04:54:29;;;;;;;54.00;9.07;;;5.40;99.90;;;;;;4133013;28;20050;-83
2022/01/13 04:58:39;;;;;;;37.72;8.15;;;5.50;99.90;;;;;;4115287;28;20051;-83
2022/01/13 05:00:39;;;;;;;36.28;8.40;;;5.50;99.90;;;;;;4117231;28;20059;-84
2022/01/13 05:02:40;;;;;;;29.08;7.55;;;5.50;99.90;;;;;;4148231;28;20053;-84
2022/01/13 05:04:41;;;;;;;36.30;7.93;;;5.50;99.90;;;;;;4148739;28;20046;-84
2022/01/13 05:06:41;;;;;;;37.55;7.88;;;5.50;99.90;;;;;;4125481;28;20085;-83
2022/01/13 05:08:42;;;;;;;35.70;6.93;;;5.50;99.90;;;;;;4130471;28;20101;-83
2022/01/13 05:10:43;;;;;;;47.25;7.78;;;5.50;99.90;;;;;;4161587;28;20505;-83
2022/01/13 05:12:46;;;;;;;37.95;7.28;;;6.40;99.90;;;;;;4132560;28;20103;-83
2022/01/13 05:14:52;;;;;;;30.40;6.85;;;5.50;99.90;;;;;;4139299;28;20049;-83
2022/01/13 05:21:04;;;;;;;40.50;7.35;;;5.50;99.90;;;;;;4135735;28;20054;-83
2022/01/13 05:23:06;;;;;;;55.22;7.93;;;5.50;99.90;;;;;;4118410;28;20141;-84
2022/01/13 05:25:08;;;;;;;50.22;8.43;;;5.50;99.90;;;;;;4118519;28;20062;-83
2022/01/13 05:27:08;;;;;;;51.40;6.95;;;5.40;99.90;;;;;;4118421;28;20431;-83
2022/01/13 05:29:12;;;;;;;34.38;7.43;;;5.40;99.90;;;;;;4118506;28;20141;-84
2022/01/13 05:31:12;;;;;;;38.42;7.97;;;5.40;99.90;;;;;;4124195;28;20055;-83
2022/01/13 05:33:13;;;;;;;31.75;7.63;;;5.50;99.90;;;;;;4134049;28;20085;-84
2022/01/13 05:35:15;;;;;;;36.65;8.15;;;6.40;99.90;;;;;;4118030;28;20126;-83
2022/01/13 05:37:16;;;;;;;39.13;7.32;;;5.50;99.90;;;;;;4134171;28;20137;-83
2022/01/13 05:39:16;;;;;;;40.67;9.25;;;5.50;99.90;;;;;;4118059;28;20504;-83
2022/01/13 05:41:17;;;;;;;36.80;8.25;;;5.50;99.90;;;;;;4117756;28;20542;-84
2022/01/13 05:43:18;;;;;;;47.28;8.60;;;5.50;99.90;;;;;;4134164;28;20077;-84
2022/01/13 05:45:21;;;;;;;37.13;8.05;;;6.50;99.90;;;;;;4134020;28;20116;-83
2022/01/13 05:47:21;;;;;;;33.08;7.40;;;6.40;99.90;;;;;;4133939;28;20113;-83
2022/01/13 05:49:22;;;;;;;36.00;8.02;;;6.20;99.90;;;;;;4134172;28;20058;-83
2022/01/13 05:51:24;;;;;;;44.38;8.98;;;5.50;99.90;;;;;;4133978;28;20068;-83
2022/01/13 05:53:24;;;;;;;53.80;9.63;;;5.70;99.90;;;;;;4133894;28;20461;-83
2022/01/13 05:55:25;;;;;;;40.08;8.73;;;6.10;99.90;;;;;;4129997;28;20066;-83
2022/01/13 05:57:26;;;;;;;44.08;7.97;;;5.50;99.90;;;;;;4133641;28;20466;-83
2022/01/13 05:59:27;;;;;;;46.97;9.32;;;5.50;99.90;;;;;;4117872;28;20062;-83
2022/01/13 06:01:27;;;;;;;48.33;8.88;;;5.50;99.90;;;;;;4133329;28;20042;-83
2022/01/13 06:03:28;;;;;;;61.88;8.57;;;5.60;99.90;;;;;;4133917;28;20078;-83
2022/01/13 06:05:29;;;;;;;54.55;8.85;;;5.60;99.90;;;;;;4135101;28;20073;-83
2022/01/13 06:07:30;;;;;;;51.20;9.15;;;6.00;99.90;;;;;;4135600;28;20057;-82
2022/01/13 06:09:30;;;;;;;40.90;8.50;;;5.60;99.90;;;;;;4138550;28;20177;-82
2022/01/13 06:11:38;;;;;;;40.90;8.55;;;5.60;99.90;;;;;;4138600;28;20059;-82
2022/01/13 06:13:39;;;;;;;48.80;10.18;;;6.00;99.90;;;;;;4121918;28;20058;-82
2022/01/13 06:15:40;;;;;;;45.22;8.80;;;5.60;99.90;;;;;;4120909;28;20055;-83
2022/01/13 06:17:42;;;;;;;47.03;9.23;;;5.60;99.90;;;;;;4133501;28;20047;-83
2022/01/13 06:19:43;;;;;;;56.05;10.02;;;5.70;99.90;;;;;;4133547;28;20047;-84
2022/01/13 06:21:44;;;;;;;41.20;10.15;;;6.30;99.90;;;;;;4133227;28;20487;-83
2022/01/13 06:23:44;;;;;;;43.60;9.40;;;6.10;99.90;;;;;;4131786;28;20487;-83
2022/01/13 06:25:45;;;;;;;51.58;9.27;;;5.70;99.90;;;;;;4131909;28;20074;-83
2022/01/13 06:27:46;;;;;;;40.42;8.88;;;6.90;99.90;;;;;;4133231;28;20042;-83
2022/01/13 06:29:47;;;;;;;40.75;10.07;;;6.00;99.90;;;;;;4128525;28;20097;-82
2022/01/13 06:31:50;;;;;;;46.05;9.07;;;5.80;99.90;;;;;;4123754;28;20058;-83
2022/01/13 06:33:50;;;;;;;52.00;9.82;;;6.70;99.90;;;;;;4142043;28;20118;-83
2022/01/13 06:35:52;;;;;;;49.70;9.35;;;5.80;99.90;;;;;;4151465;28;20041;-83
2022/01/13 06:37:53;;;;;;;49.10;9.32;;;6.30;99.90;;;;;;4118032;28;20062;-83
2022/01/13 06:39:54;;;;;;;51.25;9.65;;;6.60;99.90;;;;;;4151035;28;20065;-84
2022/01/13 06:41:54;;;;;;;36.60;9.23;;;5.80;99.90;;;;;;4150875;28;20088;-84
2022/01/13 06:43:55;;;;;;;59.90;9.45;;;6.90;99.90;;;;;;4132523;28;20057;-84
2022/01/13 06:45:56;;;;;;;44.22;8.43;;;6.60;99.90;;;;;;4133882;28;20046;-84
2022/01/13 06:47:56;;;;;;;38.22;10.15;;;5.80;99.90;;;;;;4144849;28;20042;-84
2022/01/13 06:49:57;;;;;;;40.78;8.43;;;6.70;99.90;;;;;;4130636;28;20543;-84
2022/01/13 06:51:58;;;;;;;67.50;10.32;;;5.80;99.90;;;;;;4151408;28;20078;-84
2022/01/13 06:54:00;;;;;;;46.33;9.80;;;5.90;99.90;;;;;;4133660;28;20089;-84
2022/01/13 06:56:01;;;;;;;49.90;9.15;;;6.00;99.90;;;;;;4150651;28;20073;-84
2022/01/13 06:58:03;;;;;;;55.13;9.05;;;6.80;99.90;;;;;;4143764;28;20050;-83
2022/01/13 07:00:05;;;;;;;53.03;9.57;;;5.90;99.90;;;;;;4136031;28;20066;-83
2022/01/13 07:02:06;;;;;;;40.38;9.10;;;5.90;99.90;;;;;;4132524;28;20113;-83
2022/01/13 07:04:09;;;;;;;49.72;9.38;;;6.10;99.90;;;;;;4122779;28;20464;-84
2022/01/13 07:06:10;;;;;;;35.63;9.57;;;5.90;99.90;;;;;;4132631;28;20038;-84
2022/01/13 07:08:11;;;;;;;54.60;10.45;;;6.50;99.90;;;;;;4130710;28;20073;-84
2022/01/13 07:10:13;;;;;;;43.00;10.18;;;5.90;99.90;;;;;;4150756;28;20042;-84
2022/01/13 07:12:14;;;;;;;52.03;10.25;;;5.90;99.90;;;;;;4132996;28;20065;-84
2022/01/13 07:14:15;;;;;;;50.33;9.45;;;6.80;99.90;;;;;;4132639;28;20051;-83
2022/01/13 07:16:16;;;;;;;46.25;9.30;;;6.70;99.90;;;;;;4149518;28;20050;-83
2022/01/13 07:18:17;;;;;;;51.97;10.20;;;5.90;99.90;;;;;;4116262;28;20138;-83
2022/01/13 07:20:18;;;;;;;53.58;10.73;;;5.90;99.90;;;;;;4115137;28;20042;-84
2022/01/13 07:22:19;;;;;;;41.03;9.40;;;5.90;99.90;;;;;;4132927;28;20056;-84
2022/01/13 07:24:20;;;;;;;45.90;11.98;;;6.90;99.90;;;;;;4131452;28;20046;-84
2022/01/13 07:26:21;;;;;;;40.97;10.75;;;6.00;99.90;;;;;;4115532;28;20426;-84
2022/01/13 07:28:22;;;;;;;40.80;9.35;;;6.60;99.90;;;;;;4148926;28;20490;-85
2022/01/13 07:30:22;;;;;;;38.70;9.73;;;6.00;99.90;;;;;;4132041;28;20050;-84
2022/01/13 07:32:23;;;;;;;59.58;11.50;;;6.00;99.90;;;;;;4131153;28;20137;-84
2022/01/13 07:34:25;;;;;;;44.28;9.60;;;6.00;99.90;;;;;;4132147;28;20055;-84
2022/01/13 07:36:27;;;;;;;49.78;9.52;;;6.00;99.90;;;;;;4147835;28;20169;-83
2022/01/13 07:38:28;;;;;;;48.72;10.32;;;6.10;99.90;;;;;;4131309;28;20050;-83
2022/01/13 07:40:29;;;;;;;42.55;9.93;;;6.30;99.90;;;;;;4131844;28;20089;-83
2022/01/13 07:42:30;;;;;;;56.00;10.73;;;6.00;99.90;;;;;;4133511;28;20035;-83
2022/01/13 07:44:31;;;;;;;50.22;10.23;;;6.10;99.90;;;;;;4167599;28;20041;-84
2022/01/13 07:46:32;;;;;;;45.00;10.45;;;6.70;99.90;;;;;;4165858;28;20056;-83
2022/01/13 07:48:32;;;;;;;38.30;10.63;;;6.10;99.90;;;;;;4162711;28;20033;-83
2022/01/13 07:50:33;;;;;;;38.67;10.77;;;6.70;99.90;;;;;;4133170;28;20043;-84
2022/01/13 07:52:34;;;;;;;40.28;10.40;;;6.10;99.90;;;;;;4115695;28;20572;-83
2022/01/13 07:54:35;;;;;;;40.80;9.27;;;6.10;99.90;;;;;;4112153;28;20127;-83
2022/01/13 07:56:35;;;;;;;46.22;11.15;;;6.30;99.90;;;;;;4130965;28;20130;-84
2022/01/13 07:58:37;;;;;;;45.72;11.18;;;6.20;99.90;;;;;;4115017;28;20092;-84
2022/01/13 08:00:38;;;;;;;46.58;10.95;;;6.20;99.90;;;;;;4131047;28;20046;-84
2022/01/13 08:02:40;;;;;;;48.67;12.02;;;6.10;99.90;;;;;;4149693;28;20046;-83
2022/01/13 08:04:42;;;;;;;50.75;10.07;;;6.20;99.90;;;;;;4139668;28;20053;-83
2022/01/13 08:06:42;;;;;;;53.28;10.60;;;6.60;99.90;;;;;;4142312;28;20561;-84
2022/01/13 08:08:43;;;;;;;42.58;9.98;;;6.90;99.90;;;;;;4121357;28;20082;-83
2022/01/13 08:10:44;;;;;;;55.55;11.52;;;6.20;99.90;;;;;;4165670;28;20527;-83
2022/01/13 08:12:44;;;;;;;52.85;10.20;;;6.20;99.90;;;;;;4131338;28;20166;-84
2022/01/13 08:14:45;;;;;;;43.25;10.13;;;6.90;99.90;;;;;;4099469;29;20086;-84
2022/01/13 08:16:47;;;;;;;35.78;9.77;;;6.20;99.90;;;;;;4133007;28;20506;-83
2022/01/13 08:21:08;;;;;;;47.67;11.18;;;6.30;99.90;;;;;;4134025;28;20414;-84
2022/01/13 08:23:09;;;;;;;42.95;9.77;;;6.20;99.90;;;;;;4115821;28;20066;-83
2022/01/13 08:25:10;;;;;;;55.95;11.25;;;6.20;99.90;;;;;;4138667;28;20046;-83
2022/01/13 08:27:11;;;;;;;50.63;10.23;;;6.50;99.90;;;;;;4132381;28;20046;-83
2022/01/13 08:29:12;;;;;;;39.00;9.98;;;6.20;99.90;;;;;;4132499;28;20419;-83
2022/01/13 08:31:13;;;;;;;48.45;10.63;;;6.20;99.90;;;;;;4114581;28;20068;-82
2022/01/13 08:33:13;;;;;;;39.75;10.63;;;6.20;99.90;;;;;;4126859;28;20058;-82
2022/01/13 08:35:14;;;;;;;53.85;9.57;;;6.20;99.90;;;;;;4100507;29;20456;-82
2022/01/13 08:37:16;;;;;;;44.42;10.10;;;6.20;99.90;;;;;;4140219;28;20116;-82
2022/01/13 08:39:17;;;;;;;39.92;9.90;;;6.20;99.90;;;;;;4116464;28;20412;-82
2022/01/13 08:41:18;;;;;;;38.45;10.02;;;6.20;99.90;;;;;;4133071;28;20101;-82
2022/01/13 08:43:18;;;;;;;40.83;9.82;;;6.40;99.90;;;;;;4123056;28;20058;-83
2022/01/13 08:45:19;;;;;;;39.72;10.18;;;6.20;99.90;;;;;;4132800;28;20069;-82
2022/01/13 08:47:20;;;;;;;39.33;10.65;;;7.00;99.90;;;;;;4148759;28;20125;-82
2022/01/13 08:49:21;;;;;;;41.72;9.30;;;6.90;99.90;;;;;;4149216;28;20050;-82
2022/01/13 08:51:21;;;;;;;37.42;9.35;;;7.00;99.90;;;;;;4116810;28;20046;-84
2022/01/13 08:53:22;;;;;;;41.30;9.90;;;7.30;99.90;;;;;;4133044;28;20046;-83
2022/01/13 08:55:23;;;;;;;33.95;9.38;;;6.20;99.90;;;;;;4125203;28;20519;-83
2022/01/13 08:57:24;;;;;;;37.00;9.23;;;6.20;99.90;;;;;;4131942;28;20050;-85
2022/01/13 08:59:25;;;;;;;38.80;9.75;;;6.00;99.90;;;;;;4150016;28;20045;-83
2022/01/13 09:01:27;;;;;;;41.78;9.75;;;6.20;99.90;;;;;;4117375;28;20090;-82
2022/01/13 09:03:28;;;;;;;45.53;11.07;;;7.10;99.90;;;;;;4131754;28;20415;-82
2022/01/13 09:05:28;;;;;;;35.70;10.40;;;6.50;99.90;;;;;;4149056;28;20113;-84
2022/01/13 09:07:29;;;;;;;48.67;10.00;;;6.20;99.90;;;;;;4148956;28;20046;-83
2022/01/13 09:09:30;;;;;;;36.17;10.52;;;6.20;99.90;;;;;;4131999;28;20054;-83
2022/01/13 09:11:31;;;;;;;40.75;10.43;;;6.20;99.90;;;;;;4149104;28;20060;-83
2022/01/13 09:13:36;;;;;;;36.92;9.55;;;6.20;99.90;;;;;;4149538;28;20080;-83
2022/01/13 09:15:42;;;;;;;44.05;9.98;;;6.30;99.90;;;;;;4131619;28;20415;-83
2022/01/13 09:17:44;;;;;;;35.85;9.00;;;6.20;99.90;;;;;;4131752;28;20046;-82
2022/01/13 09:19:45;;;;;;;44.08;10.30;;;6.20;99.90;;;;;;4161287;28;20067;-83
2022/01/13 09:21:47;;;;;;;33.85;8.88;;;6.60;99.90;;;;;;4150154;28;20128;-84
2022/01/13 09:23:48;;;;;;;37.67;9.02;;;6.20;99.90;;;;;;4167195;28;20073;-84
2022/01/13 09:25:49;;;;;;;41.20;10.68;;;6.20;99.90;;;;;;4125451;28;20049;-82
2022/01/13 09:27:50;;;;;;;33.10;9.30;;;6.30;99.90;;;;;;4133219;28;20126;-81
2022/01/13 09:29:50;;;;;;;30.50;9.18;;;6.80;99.90;;;;;;4120242;28;20046;-81
2022/01/13 09:31:51;;;;;;;29.77;8.73;;;6.40;99.90;;;;;;4149072;28;20144;-82
2022/01/13 09:33:53;;;;;;;30.73;8.95;;;6.20;99.90;;;;;;4130959;28;20082;-81
2022/01/13 09:35:54;;;;;;;35.40;9.55;;;6.20;99.90;;;;;;4150695;28;20046;-82
2022/01/13 09:37:54;;;;;;;40.80;9.57;;;6.60;99.90;;;;;;4129763;28;20422;-82
2022/01/13 09:39:56;;;;;;;39.60;10.38;;;6.30;99.90;;;;;;4131432;28;20126;-82
2022/01/13 09:41:57;;;;;;;31.42;8.43;;;7.40;99.90;;;;;;4137445;28;20042;-81
2022/01/13 09:44:00;;;;;;;32.38;9.23;;;6.30;99.90;;;;;;4152652;28;20410;-82
2022/01/13 09:46:01;;;;;;;34.00;9.07;;;6.40;99.90;;;;;;4115374;28;20039;-82
2022/01/13 09:48:01;;;;;;;30.90;9.20;;;6.30;99.90;;;;;;4148674;28;20045;-81
2022/01/13 09:50:09;;;;;;;36.13;9.75;;;6.30;99.90;;;;;;4148804;28;20045;-82
2022/01/13 09:52:10;;;;;;;37.03;10.38;;;6.40;99.90;;;;;;4148611;28;20053;-81
2022/01/13 09:54:11;;;;;;;33.85;9.32;;;6.40;99.90;;;;;;4131459;28;20650;-81
2022/01/13 09:56:13;;;;;;;36.90;9.00;;;6.40;99.90;;;;;;4130736;28;20407;-82
2022/01/13 09:58:14;;;;;;;37.92;10.20;;;6.40;99.90;;;;;;4131699;28;20066;-83
2022/01/13 10:00:22;;;;;;;33.83;10.35;;;6.40;99.90;;;;;;4133418;28;20050;-83
2022/01/13 10:02:24;;;;;;;36.47;9.68;;;6.40;99.90;;;;;;4134871;28;20046;-82
2022/01/13 10:04:41;;;;;;;36.08;10.20;;;6.40;99.90;;;;;;4136811;28;20185;-83
2022/01/13 10:06:46;;;;;;;40.65;10.50;;;7.00;99.90;;;;;;4127412;28;20034;-82
2022/01/13 10:08:58;;;;;;;36.97;10.88;;;7.50;99.90;;;;;;4123903;28;20069;-82
2022/01/13 10:11:40;;;;;;;30.45;9.52;;;7.10;99.90;;;;;;4131492;28;20058;-81
2022/01/13 10:13:51;;;;;;;37.78;10.20;;;6.40;99.90;;;;;;4135530;28;20125;-82
2022/01/13 10:18:12;;;;;;;;;;;6.40;99.90;;;;;;4155023;28;20037;-83
2022/01/13 10:20:14;;;;;;;34.47;9.05;;;6.40;99.90;;;;;;4121444;28;19941;-82
2022/01/13 10:22:20;;;;;;;30.25;8.27;;;6.40;99.90;;;;;;4138787;28;20085;-82
2022/01/13 10:24:25;;;;;;;29.38;9.63;;;6.40;99.90;;;;;;4117196;28;20134;-83
2022/01/13 10:26:25;;;;;;;41.45;10.43;;;6.40;99.90;;;;;;4127171;28;20129;-83
2022/01/13 10:28:28;;;;;;;36.83;9.15;;;6.50;99.90;;;;;;4138761;28;20910;-83
2022/01/13 10:30:36;;;;;;;38.85;9.50;;;6.40;99.90;;;;;;4127483;28;20046;-82
2022/01/13 10:32:40;;;;;;;35.63;10.63;;;6.40;99.90;;;;;;4139741;28;20514;-82
2022/01/13 10:34:43;;;;;;;37.30;9.43;;;6.50;99.90;;;;;;4144127;28;20058;-82
2022/01/13 10:37:10;;;;;;;34.22;10.00;;;7.30;99.90;;;;;;4141435;28;20061;-85
2022/01/13 10:39:10;;;;;;;37.60;10.68;;;6.40;99.90;;;;;;4114627;28;20054;-83
2022/01/13 10:42:11;;;;;;;42.25;10.27;;;6.50;99.90;;;;;;4122739;28;20061;-82
2022/01/13 10:44:13;;;;;;;34.22;9.93;;;6.50;99.90;;;;;;4131179;28;20051;-82
2022/01/13 10:46:14;;;;;;;34.03;10.73;;;6.80;99.90;;;;;;4130101;28;20061;-82
2022/01/13 10:48:30;;;;;;;39.08;11.82;;;6.50;99.90;;;;;;4116027;28;20054;-82
2022/01/13 10:50:41;;;;;;;33.72;9.43;;;7.00;99.90;;;;;;4121003;28;20052;-84
2022/01/13 10:52:42;;;;;;;39.33;11.60;;;6.40;99.90;;;;;;4127945;28;20042;-83
2022/01/13 10:54:43;;;;;;;45.13;10.50;;;6.50;99.90;;;;;;4139254;28;20095;-83
2022/01/13 10:56:45;;;;;;;34.58;10.32;;;6.50;99.90;;;;;;4127565;28;20047;-82
2022/01/13 10:58:51;;;;;;;32.17;11.93;;;6.50;99.90;;;;;;4138087;28;20038;-82
2022/01/13 11:00:53;;;;;;;46.58;11.52;;;6.50;99.90;;;;;;4140987;28;20038;-83
2022/01/13 11:03:09;;;;;;;41.45;10.70;;;7.40;99.90;;;;;;4127133;28;20035;-84